createdAt,value
2017-09-26T02:27:47.182Z,31.00
2017-09-26T02:30:14.696Z,32.47
2017-09-26T02:32:42.279Z,33.92
2017-09-26T02:35:09.804Z,32.05
2017-09-26T02:37:37.313Z,31.95
2017-09-26T02:40:04.827Z,31.77
2017-09-26T02:42:32.339Z,31.60
2017-09-26T02:44:59.869Z,37.63
2017-09-26T02:47:28.158Z,34.85
2017-09-26T02:49:55.661Z,34.38
2017-09-26T02:52:23.166Z,32.58
2017-09-26T02:54:50.694Z,33.83
2017-09-26T02:57:18.197Z,37.15
2017-09-26T02:59:45.725Z,36.67
2017-09-26T03:02:13.233Z,36.35
2017-09-26T03:04:40.892Z,36.15
2017-09-26T03:07:08.415Z,37.05
2017-09-26T03:09:36.700Z,37.00
2017-09-26T03:12:04.968Z,38.55
2017-09-26T03:14:33.244Z,38.72
2017-09-26T03:17:01.528Z,39.70
2017-09-26T03:19:29.800Z,36.30
2017-09-26T03:21:58.071Z,36.20
2017-09-26T03:24:25.573Z,37.35
2017-09-26T03:26:53.087Z,38.25
2017-09-26T03:29:20.600Z,38.17
2017-09-26T03:31:48.145Z,36.53
2017-09-26T03:34:15.638Z,35.90
2017-09-26T03:36:43.154Z,39.17
2017-09-26T03:39:10.672Z,40.95
2017-09-26T03:41:38.170Z,39.05
2017-09-26T03:44:05.665Z,37.92
2017-09-26T03:46:33.182Z,37.53
2017-09-26T03:49:00.690Z,38.92
2017-09-26T03:51:29.033Z,39.78
2017-09-26T03:53:56.540Z,40.60
2017-09-26T03:56:24.052Z,40.22
2017-09-26T03:58:51.583Z,41.33
2017-09-26T04:01:20.160Z,36.88
2017-09-26T04:03:47.684Z,40.35
2017-09-26T04:06:15.192Z,38.17
2017-09-26T04:08:43.478Z,40.65
2017-09-26T04:11:11.773Z,40.03
2017-09-26T04:13:39.293Z,41.65
2017-09-26T04:16:06.801Z,41.85
2017-09-26T04:18:34.306Z,40.58
2017-09-26T04:21:01.804Z,42.33
2017-09-26T04:23:29.332Z,42.47
2017-09-26T04:25:56.847Z,43.08
2017-09-26T04:28:24.348Z,44.17
2017-09-26T04:30:51.845Z,37.58
2017-09-26T04:33:19.401Z,40.53
2017-09-26T04:35:46.924Z,39.28
2017-09-26T04:38:14.440Z,39.75
2017-09-26T04:40:41.955Z,39.50
2017-09-26T04:43:09.458Z,39.08
2017-09-26T04:45:36.976Z,39.55
2017-09-26T04:48:05.258Z,40.45
2017-09-26T04:50:33.540Z,39.55
2017-09-26T04:53:01.033Z,37.38
2017-09-26T04:55:28.538Z,41.63
2017-09-26T04:57:56.818Z,38.83
2017-09-26T05:00:24.326Z,40.45
2017-09-26T05:02:51.835Z,39.33
2017-09-26T05:05:20.122Z,38.30
2017-09-26T05:07:47.677Z,39.55
2017-09-26T05:10:15.188Z,39.42
2017-09-26T05:12:42.688Z,38.20
2017-09-26T05:15:10.971Z,41.13
2017-09-26T05:17:39.232Z,37.10
2017-09-26T05:20:06.752Z,41.40
2017-09-26T05:22:34.284Z,39.83
2017-09-26T05:25:01.795Z,40.25
2017-09-26T05:27:29.315Z,39.40
2017-09-26T05:29:56.841Z,37.55
2017-09-26T05:32:24.400Z,38.63
2017-09-26T05:34:52.676Z,38.45
2017-09-26T05:37:20.942Z,41.03
2017-09-26T05:39:48.576Z,37.55
2017-09-26T05:42:16.088Z,42.28
2017-09-26T05:44:44.371Z,39.03
2017-09-26T05:47:11.912Z,40.05
2017-09-26T05:49:40.205Z,36.17
2017-09-26T05:52:07.727Z,37.80
2017-09-26T05:54:35.240Z,37.03
2017-09-26T05:57:02.838Z,38.42
2017-09-26T05:59:30.360Z,37.40
2017-09-26T06:01:57.868Z,40.03
2017-09-26T06:04:25.477Z,36.17
2017-09-26T06:06:52.997Z,38.05
2017-09-26T06:09:20.543Z,35.47
2017-09-26T06:11:48.072Z,40.78
2017-09-26T06:14:15.602Z,36.55
2017-09-26T06:16:43.191Z,40.60
2017-09-26T06:19:10.705Z,37.65
2017-09-26T06:21:38.266Z,35.17
2017-09-26T06:24:06.536Z,40.12
2017-09-26T06:26:34.041Z,42.58
2017-09-26T06:29:01.567Z,41.30
2017-09-26T06:31:29.124Z,37.15
2017-09-26T06:33:57.399Z,37.30
2017-09-26T06:36:25.704Z,36.20
2017-09-26T06:38:53.210Z,41.58
2017-09-26T06:41:20.728Z,39.10
2017-09-26T06:43:48.233Z,35.85
2017-09-26T06:46:15.768Z,35.90
2017-09-26T06:48:43.285Z,39.00
2017-09-26T06:51:10.814Z,37.20
2017-09-26T06:53:38.308Z,36.67
2017-09-26T06:56:05.815Z,34.40
2017-09-26T06:58:33.346Z,37.15
2017-09-26T07:01:00.861Z,35.88
2017-09-26T07:03:28.480Z,35.70
2017-09-26T07:05:55.984Z,37.15
2017-09-26T07:08:24.256Z,34.28
2017-09-26T07:10:51.794Z,36.35
2017-09-26T07:13:19.295Z,35.95
2017-09-26T07:15:46.799Z,35.90
2017-09-26T07:18:14.296Z,35.33
2017-09-26T07:20:42.584Z,41.60
2017-09-26T07:23:10.966Z,35.95
2017-09-26T07:25:38.485Z,38.92
2017-09-26T07:28:06.015Z,36.67
2017-09-26T07:30:33.544Z,33.08
2017-09-26T07:33:01.072Z,37.00
2017-09-26T07:35:28.616Z,37.28
2017-09-26T07:37:56.141Z,35.58
2017-09-26T07:40:23.672Z,31.20
2017-09-26T07:42:51.952Z,34.25
2017-09-26T07:45:20.220Z,32.75
2017-09-26T07:47:47.719Z,35.25
2017-09-26T07:50:15.233Z,34.25
2017-09-26T07:52:42.759Z,33.13
2017-09-26T07:55:10.317Z,35.53
2017-09-26T07:57:37.843Z,34.35
2017-09-26T08:00:05.361Z,34.08
2017-09-26T08:02:33.031Z,31.33
2017-09-26T08:05:00.701Z,31.08
2017-09-26T08:07:28.404Z,31.58
2017-09-26T08:09:56.109Z,30.05
2017-09-26T08:12:23.617Z,32.70
2017-09-26T08:14:51.168Z,33.47
2017-09-26T08:17:19.436Z,32.75
2017-09-26T08:19:47.720Z,31.17
2017-09-26T08:22:16.024Z,31.60
2017-09-26T08:24:43.549Z,30.50
2017-09-26T08:27:11.055Z,29.83
2017-09-26T08:29:38.568Z,28.70
2017-09-26T08:32:06.849Z,30.75
2017-09-26T08:34:35.116Z,28.27
2017-09-26T08:37:03.385Z,29.58
2017-09-26T08:39:30.890Z,31.87
2017-09-26T08:41:58.417Z,27.58
2017-09-26T08:44:25.964Z,29.37
2017-09-26T08:46:54.246Z,30.08
2017-09-26T08:49:22.568Z,27.80
2017-09-26T08:51:50.122Z,29.75
2017-09-26T08:54:17.629Z,31.20
2017-09-26T08:56:45.188Z,32.30
2017-09-26T08:59:12.682Z,31.92
2017-09-26T09:01:40.218Z,32.35
2017-09-26T09:04:07.723Z,34.08
2017-09-26T09:06:35.234Z,30.02
2017-09-26T09:09:02.746Z,31.87
2017-09-26T09:11:30.602Z,33.10
2017-09-26T09:13:58.123Z,35.67
2017-09-26T09:16:26.472Z,34.35
2017-09-26T09:18:53.984Z,30.37
2017-09-26T09:21:21.496Z,33.92
2017-09-26T09:23:49.015Z,34.50
2017-09-26T09:26:16.516Z,33.38
2017-09-26T09:28:44.052Z,30.92
2017-09-26T09:31:11.571Z,30.08
2017-09-26T09:33:39.903Z,29.73
2017-09-26T09:36:07.414Z,31.33
2017-09-26T09:38:35.033Z,30.83
2017-09-26T09:41:02.536Z,31.30
2017-09-26T09:43:30.057Z,30.67
2017-09-26T09:45:57.608Z,32.17
2017-09-26T09:48:25.104Z,31.67
2017-09-26T09:50:53.370Z,34.55
2017-09-26T09:53:20.879Z,34.20
2017-09-26T09:55:48.410Z,34.30
2017-09-26T09:58:15.935Z,35.88
2017-09-26T10:00:43.453Z,33.58
2017-09-26T10:03:10.975Z,33.47
2017-09-26T10:05:39.252Z,36.13
2017-09-26T10:08:07.577Z,33.97
2017-09-26T10:10:35.091Z,31.33
2017-09-26T10:13:02.746Z,29.10
2017-09-26T10:15:30.280Z,31.10
2017-09-26T10:17:57.859Z,30.98
2017-09-26T10:20:25.384Z,27.60
2017-09-26T10:22:52.890Z,28.33
2017-09-26T10:25:21.168Z,31.45
2017-09-26T10:27:49.449Z,28.77
2017-09-26T10:30:17.034Z,28.85
2017-09-26T10:32:44.564Z,29.40
2017-09-26T10:35:12.855Z,26.90
2017-09-26T10:37:41.720Z,25.90
2017-09-26T10:40:09.990Z,26.25
2017-09-26T10:42:37.527Z,25.10
2017-09-26T10:45:05.161Z,26.00
2017-09-26T10:47:32.706Z,25.60
2017-09-26T10:50:00.221Z,24.85
2017-09-26T10:52:27.724Z,23.25
2017-09-26T10:54:55.249Z,25.70
2017-09-26T10:57:22.736Z,23.00
2017-09-26T10:59:50.280Z,23.00
2017-09-26T11:02:18.555Z,22.95
2017-09-26T11:04:46.873Z,25.92
2017-09-26T11:07:14.389Z,22.15
2017-09-26T11:09:41.905Z,23.80
2017-09-26T11:12:09.483Z,25.05
2017-09-26T11:14:37.020Z,23.75
2017-09-26T11:17:04.526Z,24.15
2017-09-26T11:19:32.042Z,21.98
2017-09-26T11:21:59.588Z,23.25
2017-09-26T11:24:27.100Z,22.75
2017-09-26T11:26:54.618Z,23.65
2017-09-26T11:29:22.132Z,30.17
2017-09-26T11:31:49.634Z,23.90
2017-09-26T11:34:17.163Z,24.73
2017-09-26T11:36:44.802Z,21.60
2017-09-26T11:39:13.076Z,21.67
2017-09-26T11:41:40.610Z,21.77
2017-09-26T11:44:08.263Z,22.73
2017-09-26T11:46:35.791Z,22.40
2017-09-26T11:49:03.287Z,23.85
2017-09-26T11:51:30.797Z,21.20
2017-09-26T11:53:59.097Z,22.75
2017-09-26T11:56:26.612Z,23.33
2017-09-26T11:58:54.118Z,22.08
2017-09-26T12:01:21.649Z,21.92
2017-09-26T12:03:49.921Z,24.87
2017-09-26T12:06:18.219Z,24.85
2017-09-26T12:08:52.210Z,27.20
2017-09-26T12:11:20.527Z,28.73
2017-09-26T12:13:53.633Z,25.25
2017-09-26T12:16:21.214Z,27.42
2017-09-26T12:18:48.748Z,24.08
2017-09-26T12:21:16.246Z,26.85
2017-09-26T12:23:44.527Z,24.05
2017-09-26T12:26:13.142Z,25.30
2017-09-26T12:28:40.658Z,26.37
2017-09-26T12:31:08.184Z,25.23
2017-09-26T12:33:35.703Z,24.17
2017-09-26T12:36:03.201Z,25.60
2017-09-26T12:38:30.698Z,25.95
2017-09-26T12:40:58.304Z,27.25
2017-09-26T12:43:25.968Z,25.60
2017-09-26T12:45:53.513Z,25.70
2017-09-26T12:48:21.046Z,26.30
2017-09-26T12:50:48.564Z,23.62
2017-09-26T12:53:16.193Z,24.65
2017-09-26T12:55:43.712Z,24.98
2017-09-26T12:58:11.282Z,27.33
2017-09-26T13:00:38.794Z,27.67
2017-09-26T13:03:06.290Z,24.70
2017-09-26T13:05:33.907Z,23.38
2017-09-26T13:08:01.429Z,25.60
2017-09-26T13:10:29.690Z,24.33
2017-09-26T13:12:57.415Z,24.60
2017-09-26T13:15:24.929Z,28.35
2017-09-26T13:17:52.439Z,28.17
2017-09-26T13:20:20.142Z,28.50
2017-09-26T13:22:47.646Z,27.00
2017-09-26T13:25:15.184Z,30.20
2017-09-26T13:27:42.729Z,26.52
2017-09-26T13:30:11.041Z,24.17
2017-09-26T13:32:38.549Z,25.05
2017-09-26T13:35:06.060Z,28.67
2017-09-26T13:37:33.579Z,28.30
2017-09-26T13:40:01.088Z,30.27
2017-09-26T13:42:28.629Z,30.25
2017-09-26T13:44:56.138Z,30.40
2017-09-26T13:47:23.653Z,31.65
2017-09-26T13:49:51.155Z,27.77
2017-09-26T13:52:19.418Z,28.90
2017-09-26T13:54:46.950Z,27.62
2017-09-26T13:57:14.475Z,29.50
2017-09-26T13:59:42.785Z,31.00
2017-09-26T14:02:10.339Z,30.23
2017-09-26T14:04:37.870Z,27.55
2017-09-26T14:07:06.191Z,28.10
2017-09-26T14:09:33.697Z,27.35
2017-09-26T14:12:01.234Z,30.50
2017-09-26T14:14:28.790Z,28.83
2017-09-26T14:16:56.345Z,29.42
2017-09-26T14:19:23.848Z,28.23
2017-09-26T14:21:52.123Z,32.72
2017-09-26T14:24:20.406Z,28.05
2017-09-26T14:26:48.716Z,28.95
2017-09-26T14:29:16.317Z,27.35
2017-09-26T14:31:43.844Z,26.08
2017-09-26T14:34:11.361Z,24.33
2017-09-26T14:36:39.644Z,27.48
2017-09-26T14:39:07.157Z,23.67
2017-09-26T14:41:34.666Z,24.30
2017-09-26T14:44:02.928Z,26.92
2017-09-26T14:46:31.209Z,23.75
2017-09-26T14:48:59.476Z,27.08
2017-09-26T14:51:26.995Z,25.00
2017-09-26T14:53:54.507Z,24.08
2017-09-26T14:56:22.017Z,25.65
2017-09-26T14:58:49.522Z,27.75
2017-09-26T15:01:17.834Z,28.38
2017-09-26T15:03:45.377Z,27.48
2017-09-26T15:06:12.916Z,27.55
2017-09-26T15:08:41.191Z,30.08
2017-09-26T15:11:09.509Z,28.95
2017-09-26T15:13:37.027Z,28.92
2017-09-26T15:16:04.549Z,30.35
2017-09-26T15:18:32.108Z,29.73
2017-09-26T15:20:59.646Z,30.70
2017-09-26T15:23:27.158Z,28.95
2017-09-26T15:25:54.662Z,31.48
2017-09-26T15:28:22.174Z,27.35
2017-09-26T15:30:49.720Z,29.55
2017-09-26T15:33:17.232Z,30.92
2017-09-26T15:35:44.744Z,30.40
2017-09-26T15:38:12.445Z,29.87
2017-09-26T15:40:39.965Z,27.50
2017-09-26T15:43:07.468Z,29.95
2017-09-26T15:45:35.008Z,30.52
2017-09-26T15:48:03.284Z,29.58
2017-09-26T15:50:30.840Z,30.58
2017-09-26T15:52:59.135Z,31.45
2017-09-26T15:55:27.414Z,29.42
2017-09-26T15:57:54.942Z,30.77
2017-09-26T16:00:22.442Z,27.50
2017-09-26T16:02:50.088Z,30.40
2017-09-26T16:05:17.619Z,27.33
2017-09-26T16:07:45.130Z,26.70
2017-09-26T16:10:12.671Z,29.60
2017-09-26T16:12:40.186Z,28.55
2017-09-26T16:15:07.710Z,30.98
2017-09-26T16:17:35.231Z,27.98
2017-09-26T16:20:02.743Z,27.33
2017-09-26T16:22:30.255Z,28.48
2017-09-26T16:24:58.548Z,32.83
2017-09-26T16:27:26.052Z,29.25
2017-09-26T16:29:53.574Z,32.28
2017-09-26T16:32:21.092Z,28.30
2017-09-26T16:34:48.936Z,30.48
2017-09-26T16:37:16.526Z,29.80
2017-09-26T16:39:44.037Z,27.85
2017-09-26T16:42:11.559Z,29.50
2017-09-26T16:44:39.962Z,28.23
2017-09-26T16:47:07.507Z,28.98
2017-09-26T16:49:35.836Z,27.70
2017-09-26T16:52:03.368Z,28.75
2017-09-26T16:54:31.228Z,39.70
2017-09-26T16:56:58.756Z,31.10
2017-09-26T16:59:27.063Z,27.35
2017-09-26T17:01:54.593Z,28.77
2017-09-26T17:04:23.113Z,28.73
2017-09-26T17:06:50.640Z,29.90
2017-09-26T17:09:18.934Z,30.55
2017-09-26T17:11:46.467Z,36.00
2017-09-26T17:14:13.982Z,29.80
2017-09-26T17:16:41.492Z,30.33
2017-09-26T17:19:09.811Z,30.73
2017-09-26T17:21:38.830Z,31.75
2017-09-26T17:24:07.741Z,29.52
2017-09-26T17:26:35.266Z,30.52
2017-09-26T17:29:03.230Z,28.08
2017-09-26T17:31:30.762Z,26.35
2017-09-26T17:33:59.052Z,31.40
2017-09-26T17:36:26.592Z,28.20
2017-09-26T17:38:54.109Z,30.52
2017-09-26T17:41:21.625Z,29.17
2017-09-26T17:43:49.134Z,32.03
2017-09-26T17:46:16.638Z,28.95
2017-09-26T17:48:44.161Z,28.17
2017-09-26T17:51:11.785Z,31.20
2017-09-26T17:53:39.301Z,31.55
2017-09-26T17:56:07.568Z,33.60
2017-09-26T17:58:35.087Z,30.77
2017-09-26T18:01:02.624Z,31.10
2017-09-26T18:03:30.140Z,31.83
2017-09-26T18:05:57.765Z,32.17
2017-09-26T18:08:25.305Z,33.63
2017-09-26T18:10:52.933Z,37.72
2017-09-26T18:13:21.227Z,35.08
2017-09-26T18:15:49.516Z,36.75
2017-09-26T18:18:17.082Z,43.72
2017-09-26T18:20:44.607Z,37.47
2017-09-26T18:23:12.926Z,38.70
2017-09-26T18:25:42.313Z,37.03
2017-09-26T18:28:09.828Z,37.25
2017-09-26T18:30:37.348Z,44.60
2017-09-26T18:33:04.859Z,37.55
2017-09-26T18:35:32.416Z,34.70
2017-09-26T18:38:00.727Z,36.35
2017-09-26T18:40:28.247Z,34.53
2017-09-26T18:42:55.768Z,34.35
2017-09-26T18:45:23.322Z,37.35
2017-09-26T18:47:50.849Z,36.78
2017-09-26T18:50:18.377Z,33.17
2017-09-26T18:52:47.718Z,36.35
2017-09-26T18:55:16.058Z,34.50
2017-09-26T18:57:43.894Z,33.42
2017-09-26T19:00:11.429Z,36.42
2017-09-26T19:02:39.005Z,34.67
2017-09-26T19:05:06.550Z,34.53
2017-09-26T19:07:34.094Z,38.33
2017-09-26T19:10:02.549Z,36.00
2017-09-26T19:12:30.556Z,37.58
2017-09-26T19:14:58.835Z,33.83
2017-09-26T19:17:26.352Z,39.40
2017-09-26T19:19:53.966Z,36.92
2017-09-26T19:22:21.490Z,34.97
2017-09-26T19:24:49.015Z,36.60
2017-09-26T19:27:16.533Z,32.50
2017-09-26T19:29:44.056Z,34.00
2017-09-26T19:32:11.575Z,34.38
2017-09-26T19:34:39.085Z,33.88
2017-09-26T19:37:06.609Z,34.65
2017-09-26T19:39:34.168Z,41.47
2017-09-26T19:42:01.871Z,34.63
2017-09-26T19:44:29.389Z,35.88
2017-09-26T19:46:56.934Z,36.20
2017-09-26T19:49:24.559Z,35.25
2017-09-26T19:51:52.867Z,53.92
2017-09-26T19:54:20.423Z,35.58
2017-09-26T19:56:47.980Z,46.95
2017-09-26T19:59:15.508Z,40.10
2017-09-26T20:01:43.095Z,35.85
2017-09-26T20:04:10.790Z,44.97
2017-09-26T20:06:38.342Z,39.50
2017-09-26T20:09:05.969Z,37.22
2017-09-26T20:11:34.279Z,35.42
2017-09-26T20:14:02.067Z,38.55
2017-09-26T20:16:29.710Z,38.83
2017-09-26T20:18:57.311Z,35.67
2017-09-26T20:21:26.701Z,36.88
2017-09-26T20:23:54.288Z,36.67
2017-09-26T20:26:21.921Z,36.78
2017-09-26T20:28:49.612Z,37.80
2017-09-26T20:31:17.140Z,34.58
2017-09-26T20:33:44.985Z,38.55
2017-09-26T20:36:12.503Z,36.50
2017-09-26T20:38:40.798Z,38.63
2017-09-26T20:41:09.098Z,40.72
2017-09-26T20:43:36.641Z,38.67
2017-09-26T20:46:04.187Z,36.50
2017-09-26T20:48:31.738Z,39.50
2017-09-26T20:50:59.301Z,37.40
2017-09-26T20:53:26.965Z,38.55
2017-09-26T20:55:54.517Z,37.15
2017-09-26T20:58:22.120Z,40.28
2017-09-26T21:00:49.689Z,37.80
2017-09-26T21:03:17.281Z,35.42
2017-09-26T21:05:44.825Z,40.83
2017-09-26T21:08:12.415Z,39.60
2017-09-26T21:10:40.809Z,37.97
2017-09-26T21:13:09.118Z,40.03
2017-09-26T21:15:36.768Z,39.90
2017-09-26T21:18:04.288Z,38.38
2017-09-26T21:20:31.830Z,42.30
2017-09-26T21:22:59.727Z,40.35
2017-09-26T21:25:27.281Z,39.35
2017-09-26T21:27:54.891Z,45.92
2017-09-26T21:30:22.561Z,44.20
2017-09-26T21:32:50.164Z,43.40
2017-09-26T21:35:17.713Z,40.63
2017-09-26T21:37:45.265Z,38.88
2017-09-26T21:40:13.483Z,41.00
2017-09-26T21:42:41.868Z,39.53
2017-09-26T21:45:09.380Z,38.42
2017-09-26T21:47:36.953Z,40.10
2017-09-26T21:50:04.485Z,42.90
2017-09-26T21:52:32.090Z,44.13
2017-09-26T21:54:59.652Z,40.58
2017-09-26T21:57:27.976Z,42.30
2017-09-26T21:59:56.779Z,41.35
2017-09-26T22:02:24.393Z,38.97
2017-09-26T22:04:51.989Z,37.60
2017-09-26T22:07:19.526Z,43.08
2017-09-26T22:09:47.038Z,39.30
2017-09-26T22:12:14.548Z,40.28
2017-09-26T22:14:42.144Z,41.47
2017-09-26T22:17:09.707Z,48.75
2017-09-26T22:19:37.240Z,39.08
2017-09-26T22:22:04.810Z,39.85
2017-09-26T22:24:32.765Z,41.88
2017-09-26T22:27:00.328Z,40.72
2017-09-26T22:29:27.867Z,40.00
2017-09-26T22:31:55.374Z,42.10
2017-09-26T22:34:22.901Z,44.55
2017-09-26T22:36:50.439Z,43.28
2017-09-26T22:39:18.729Z,45.70
2017-09-26T22:41:46.246Z,46.40
2017-09-26T22:44:14.762Z,45.40
2017-09-26T22:46:43.044Z,41.22
2017-09-26T22:49:10.548Z,48.08
2017-09-26T22:51:38.081Z,44.30
2017-09-26T22:54:05.742Z,43.53
2017-09-26T22:56:33.273Z,42.92
2017-09-26T22:59:01.551Z,41.45
2017-09-26T23:01:29.823Z,48.10
2017-09-26T23:03:58.105Z,40.38
2017-09-26T23:06:26.382Z,41.08
2017-09-26T23:08:54.691Z,41.97
2017-09-26T23:11:22.191Z,44.08
2017-09-26T23:13:49.755Z,42.40
2017-09-26T23:16:17.280Z,40.85
2017-09-26T23:18:44.859Z,41.95
2017-09-26T23:21:12.368Z,40.08
2017-09-26T23:23:39.877Z,43.15
2017-09-26T23:26:07.410Z,40.08
2017-09-26T23:28:34.988Z,41.00
2017-09-26T23:31:02.514Z,40.20
2017-09-26T23:33:30.031Z,40.40
2017-09-26T23:35:57.595Z,39.92
2017-09-26T23:38:25.108Z,40.47
2017-09-26T23:40:52.644Z,42.38
2017-09-26T23:43:20.148Z,39.00
2017-09-26T23:45:47.644Z,42.42
2017-09-26T23:48:15.154Z,41.08
2017-09-26T23:50:42.681Z,42.33
2017-09-26T23:53:10.195Z,43.38
2017-09-26T23:55:37.709Z,41.40
2017-09-26T23:58:05.217Z,40.20
